Time;durP1;ratioP1;P1;durP2;ratioP2;P2;SDS_P1;SDS_P2;PMS_P1;PMS_P2;Temp;Humidity;BMP_temperature;BMP_pressure;BME280_temperature;BME280_humidity;BME280_pressure;Samples;Min_cycle;Max_cycle;Signal;HPM_P1;HPM_P2
2023/01/09 00:00:27;;;;;;;2.43;0.83;;;8.00;99.90;;;;;;5091885;28;20028;-70
2023/01/09 00:02:53;;;;;;;3.13;0.87;;;7.90;99.90;;;;;;5081458;28;20036;-71
2023/01/09 00:05:19;;;;;;;2.70;0.80;;;7.90;99.90;;;;;;5091553;28;20028;-70
2023/01/09 00:07:44;;;;;;;1.10;0.60;;;7.80;99.90;;;;;;5087326;28;20028;-70
2023/01/09 00:10:11;;;;;;;1.10;0.50;;;7.80;99.90;;;;;;5092699;28;20031;-70
2023/01/09 00:12:37;;;;;;;2.07;0.80;;;7.80;99.90;;;;;;5092753;28;20028;-70
2023/01/09 00:15:03;;;;;;;1.83;0.57;;;7.80;99.90;;;;;;5092098;28;20028;-70
2023/01/09 00:17:29;;;;;;;0.63;0.40;;;7.70;99.90;;;;;;5079277;28;20068;-70
2023/01/09 00:19:55;;;;;;;4.63;0.60;;;7.30;99.90;;;;;;5085126;28;20060;-70
2023/01/09 00:22:21;;;;;;;1.07;0.50;;;;;;;;;;5073929;28;20028;-70
2023/01/09 00:24:47;;;;;;;2.70;0.50;;;;;;;;;;5085373;28;20032;-70
2023/01/09 00:27:13;;;;;;;1.17;0.40;;;7.50;99.90;;;;;;5086091;28;20024;-70
2023/01/09 00:29:40;;;;;;;0.80;0.40;;;7.50;99.90;;;;;;5083165;28;20028;-70
2023/01/09 00:32:09;;;;;;;0.97;0.40;;;7.40;99.90;;;;;;5076564;28;20030;-70
2023/01/09 00:34:36;;;;;;;1.93;0.57;;;7.40;99.90;;;;;;5073008;28;20062;-70
2023/01/09 00:37:02;;;;;;;0.60;0.30;;;7.20;99.90;;;;;;5075083;28;20086;-71
2023/01/09 00:39:28;;;;;;;1.53;0.30;;;;;;;;;;5087909;28;20465;-70
2023/01/09 00:41:55;;;;;;;0.57;0.30;;;7.10;99.90;;;;;;5085212;28;20528;-70
2023/01/09 00:44:35;;;;;;;1.57;0.50;;;7.10;99.90;;;;;;5093533;28;20038;-70
2023/01/09 00:47:09;;;;;;;3.30;0.40;;;7.00;99.90;;;;;;5077995;28;20070;-70
2023/01/09 00:49:36;;;;;;;6.60;0.40;;;6.90;99.90;;;;;;5086600;28;20461;-70
2023/01/09 00:52:04;;;;;;;0.77;0.30;;;6.80;99.90;;;;;;5087166;28;20054;-70
2023/01/09 00:54:31;;;;;;;1.60;0.40;;;6.70;99.90;;;;;;5095331;28;20047;-70
2023/01/09 00:56:58;;;;;;;1.33;0.50;;;6.60;99.90;;;;;;5092437;28;20484;-70
2023/01/09 00:59:24;;;;;;;2.83;0.40;;;;;;;;;;5074432;28;20036;-71
2023/01/09 01:01:49;;;;;;;0.90;0.50;;;6.50;99.90;;;;;;5081501;28;20060;-69
2023/01/09 01:09:44;;;;;;;0.93;0.30;;;;;;;;;;5074605;28;20034;-69
2023/01/09 01:12:09;;;;;;;0.57;0.47;;;6.30;99.90;;;;;;5088676;28;20032;-69
2023/01/09 01:14:37;;;;;;;1.20;0.30;;;6.20;99.90;;;;;;5090735;28;20051;-69
2023/01/09 01:17:03;;;;;;;0.50;0.40;;;6.00;99.90;;;;;;5090656;28;20086;-70
2023/01/09 01:19:29;;;;;;;5.73;0.50;;;6.20;99.90;;;;;;5089102;28;20027;-69
2023/01/09 01:21:55;;;;;;;0.80;0.60;;;6.10;99.90;;;;;;5081318;28;20032;-69
2023/01/09 01:24:20;;;;;;;1.17;0.50;;;6.10;99.90;;;;;;5087457;28;20078;-69
2023/01/09 01:26:46;;;;;;;2.70;0.70;;;6.10;99.90;;;;;;5086144;28;20036;-69
2023/01/09 01:29:12;;;;;;;2.97;0.70;;;6.00;99.90;;;;;;5079242;28;20035;-70
2023/01/09 01:31:38;;;;;;;1.97;0.70;;;;;;;;;;5090552;28;20020;-70
2023/01/09 01:34:04;;;;;;;1.90;0.60;;;6.00;99.90;;;;;;5086953;28;20449;-70
2023/01/09 01:36:29;;;;;;;3.43;1.17;;;5.90;99.90;;;;;;5091004;28;20039;-70
2023/01/09 01:38:55;;;;;;;2.70;1.40;;;;;;;;;;5089948;28;20055;-70
2023/01/09 01:41:30;;;;;;;6.83;1.20;;;6.00;99.90;;;;;;5083191;28;20033;-70
2023/01/09 01:43:59;;;;;;;3.10;0.97;;;5.90;99.90;;;;;;5074045;28;20062;-70
2023/01/09 01:46:26;;;;;;;0.97;0.70;;;6.10;99.90;;;;;;5084840;28;20500;-70
2023/01/09 01:48:57;;;;;;;2.43;1.27;;;6.00;99.90;;;;;;5073572;28;20031;-71
2023/01/09 01:51:27;;;;;;;1.43;1.00;;;5.90;99.90;;;;;;5083713;28;20139;-71
2023/01/09 01:53:57;;;;;;;2.07;1.10;;;5.90;99.90;;;;;;5072705;28;20166;-71
2023/01/09 01:56:31;;;;;;;1.47;1.10;;;5.80;99.90;;;;;;5079700;28;20099;-71
2023/01/09 01:59:16;;;;;;;4.32;1.42;;;5.80;99.90;;;;;;5071748;28;20029;-71
2023/01/09 02:01:46;;;;;;;2.67;1.10;;;5.80;99.90;;;;;;5079870;28;20047;-71
2023/01/09 02:04:12;;;;;;;2.00;1.30;;;5.80;99.90;;;;;;5083719;28;20541;-71
2023/01/09 02:06:37;;;;;;;2.20;1.10;;;5.80;99.90;;;;;;5076873;28;20024;-72
2023/01/09 02:09:05;;;;;;;5.97;1.20;;;5.80;99.90;;;;;;5078820;28;20385;-71
2023/01/09 02:11:31;;;;;;;3.27;1.40;;;;;;;;;;5089314;28;20077;-71
2023/01/09 02:13:58;;;;;;;4.80;1.63;;;5.80;99.90;;;;;;5090863;28;20036;-71
2023/01/09 02:16:29;;;;;;;2.63;1.17;;;5.60;99.90;;;;;;5082301;28;20036;-71
2023/01/09 02:19:13;;;;;;;7.43;1.37;;;5.20;99.90;;;;;;5077188;28;20021;-71
2023/01/09 02:21:41;;;;;;;3.00;1.05;;;5.50;99.90;;;;;;5084868;28;20543;-71
2023/01/09 02:24:43;;;;;;;3.47;1.00;;;5.50;99.90;;;;;;5075643;28;20047;-71
2023/01/09 02:27:17;;;;;;;2.83;1.17;;;5.50;99.90;;;;;;5072011;28;20090;-71
2023/01/09 02:30:15;;;;;;;3.23;0.80;;;5.40;99.90;;;;;;5075901;28;20025;-70
2023/01/09 02:33:04;;;;;;;1.47;1.03;;;5.50;99.90;;;;;;5071524;28;20024;-69
2023/01/09 02:35:48;;;;;;;2.50;1.13;;;5.40;99.90;;;;;;5072116;28;20047;-69
2023/01/09 02:38:20;;;;;;;1.60;1.00;;;5.40;99.90;;;;;;5076927;28;20089;-69
2023/01/09 02:41:03;;;;;;;3.70;1.17;;;5.60;99.90;;;;;;5074997;28;20016;-69
2023/01/09 02:43:30;;;;;;;2.42;1.48;;;5.60;99.90;;;;;;5077574;28;20117;-69
2023/01/09 02:45:56;;;;;;;3.10;1.00;;;5.60;99.90;;;;;;5089835;28;20106;-70
2023/01/09 02:48:22;;;;;;;2.17;1.10;;;;;;;;;;5086622;28;20055;-69
2023/01/09 02:51:03;;;;;;;2.40;1.60;;;5.60;99.90;;;;;;5074758;28;20070;-69
2023/01/09 02:53:54;;;;;;;4.30;1.40;;;5.60;99.90;;;;;;5074624;28;20036;-70
2023/01/09 02:56:48;;;;;;;4.00;1.37;;;5.70;99.90;;;;;;5082806;28;20020;-69
2023/01/09 02:59:14;;;;;;;3.88;1.60;;;;;;;;;;5073511;28;20028;-70
2023/01/09 03:02:12;;;;;;;4.10;1.43;;;5.70;99.90;;;;;;5072180;28;20107;-69
2023/01/09 03:05:00;;;;;;;3.97;1.80;;;5.60;99.90;;;;;;5075548;28;20031;-69
2023/01/09 03:07:45;;;;;;;3.60;1.23;;;5.40;99.90;;;;;;5084440;28;20032;-69
2023/01/09 03:10:11;;;;;;;4.57;1.80;;;5.40;99.90;;;;;;5086093;28;20027;-69
2023/01/09 03:12:39;;;;;;;6.10;1.80;;;5.00;99.90;;;;;;5089518;28;20016;-69
2023/01/09 03:15:07;;;;;;;4.03;1.50;;;5.40;99.90;;;;;;5089130;28;20024;-69
2023/01/09 03:17:37;;;;;;;3.67;1.27;;;5.50;99.90;;;;;;5089352;28;20392;-69
2023/01/09 03:20:06;;;;;;;8.20;2.20;;;5.30;99.90;;;;;;5089870;28;20032;-69
2023/01/09 03:22:32;;;;;;;5.27;1.50;;;5.30;99.90;;;;;;5087216;28;20484;-69
2023/01/09 03:24:57;;;;;;;3.07;1.20;;;5.20;99.90;;;;;;5089638;28;20024;-69
2023/01/09 03:27:23;;;;;;;7.13;2.30;;;5.20;99.90;;;;;;5088046;28;20476;-69
2023/01/09 03:29:52;;;;;;;5.53;2.07;;;;;;;;;;5085884;28;20489;-69
2023/01/09 03:32:18;;;;;;;5.77;1.90;;;5.20;99.90;;;;;;5085296;28;20036;-70
2023/01/09 03:34:43;;;;;;;2.73;1.37;;;5.20;99.90;;;;;;5089462;28;20392;-69
2023/01/09 03:37:09;;;;;;;4.20;1.57;;;5.10;99.90;;;;;;5077068;28;20035;-69
2023/01/09 03:39:35;;;;;;;3.97;1.80;;;5.20;99.90;;;;;;5080096;28;20061;-70
2023/01/09 03:42:00;;;;;;;4.17;1.27;;;5.10;99.90;;;;;;5073239;28;20402;-69
2023/01/09 03:44:26;;;;;;;5.23;1.70;;;;;;;;;;5082013;28;20039;-69
2023/01/09 03:46:52;;;;;;;5.70;1.53;;;5.00;99.90;;;;;;5088894;28;20032;-69
2023/01/09 03:49:18;;;;;;;5.53;1.60;;;5.00;99.90;;;;;;5086907;28;20127;-70
2023/01/09 03:51:44;;;;;;;6.33;1.90;;;;;;;;;;5081835;28;20028;-69
2023/01/09 03:54:10;;;;;;;4.20;1.97;;;;;;;;;;5081137;28;20089;-70
2023/01/09 03:56:35;;;;;;;2.73;1.70;;;;;;;;;;5084145;28;20036;-69
2023/01/09 03:59:01;;;;;;;2.67;1.87;;;4.80;99.90;;;;;;5076226;28;20024;-70
2023/01/09 04:01:27;;;;;;;4.47;1.60;;;;;;;;;;5081935;28;20138;-70
2023/01/09 04:03:52;;;;;;;2.67;1.27;;;4.90;99.90;;;;;;5089420;28;20477;-70
2023/01/09 04:06:18;;;;;;;7.50;1.90;;;4.90;99.90;;;;;;5085800;28;20393;-70
2023/01/09 04:08:45;;;;;;;2.23;1.00;;;4.80;99.90;;;;;;5090024;28;20020;-70
2023/01/09 04:11:11;;;;;;;4.40;1.20;;;;;;;;;;5089958;28;20012;-70
2023/01/09 04:13:37;;;;;;;3.73;1.47;;;4.90;99.90;;;;;;5081818;28;20081;-70
2023/01/09 04:16:02;;;;;;;6.57;1.70;;;4.50;99.90;;;;;;5088606;28;20068;-70
2023/01/09 04:18:28;;;;;;;5.07;1.73;;;;;;;;;;5093241;28;20051;-70
2023/01/09 04:20:54;;;;;;;3.87;1.40;;;;;;;;;;5092140;28;20055;-70
2023/01/09 04:23:20;;;;;;;3.53;1.37;;;4.70;99.90;;;;;;5084350;28;20202;-70
2023/01/09 04:25:46;;;;;;;5.80;2.40;;;4.80;99.90;;;;;;5083667;28;20071;-70
2023/01/09 04:28:12;;;;;;;5.53;1.37;;;;;;;;;;5077444;28;20680;-70
2023/01/09 04:30:38;;;;;;;4.20;2.03;;;4.70;99.90;;;;;;5087040;28;20056;-70
2023/01/09 04:33:03;;;;;;;7.80;1.77;;;4.70;99.90;;;;;;5073108;28;20508;-70
2023/01/09 04:35:29;;;;;;;4.50;1.83;;;4.70;99.90;;;;;;5076022;28;20025;-70
2023/01/09 04:37:54;;;;;;;7.13;2.03;;;4.70;99.90;;;;;;5072927;28;20021;-70
2023/01/09 04:40:20;;;;;;;5.97;1.77;;;4.80;99.90;;;;;;5073367;28;20624;-71
2023/01/09 04:42:46;;;;;;;4.10;1.67;;;;;;;;;;5072152;28;20439;-70
2023/01/09 04:45:14;;;;;;;8.33;2.37;;;4.70;99.90;;;;;;5083968;28;20032;-70
2023/01/09 04:47:40;;;;;;;5.77;2.43;;;4.90;99.90;;;;;;5081344;28;20555;-70
2023/01/09 04:50:06;;;;;;;10.30;2.17;;;;;;;;;;5075641;28;20024;-70
2023/01/09 04:52:31;;;;;;;6.00;2.23;;;4.90;99.90;;;;;;5077912;28;20031;-69
2023/01/09 04:54:57;;;;;;;5.90;2.00;;;;;;;;;;5079408;28;20376;-69
2023/01/09 04:57:23;;;;;;;8.63;2.60;;;5.10;99.90;;;;;;5077315;28;20085;-69
2023/01/09 04:59:48;;;;;;;5.37;2.03;;;5.30;99.90;;;;;;5073518;28;20024;-69
2023/01/09 05:02:14;;;;;;;6.73;1.63;;;;;;;;;;5081828;28;20029;-69
2023/01/09 05:04:40;;;;;;;9.23;2.67;;;;;;;;;;5078771;28;20040;-70
2023/01/09 05:07:06;;;;;;;5.70;2.23;;;5.30;99.90;;;;;;5078714;28;20057;-70
2023/01/09 05:09:32;;;;;;;5.17;2.70;;;;;;;;;;5079198;28;20033;-70
2023/01/09 05:11:57;;;;;;;7.73;2.90;;;5.40;99.90;;;;;;5082837;28;20028;-70
2023/01/09 05:14:23;;;;;;;10.63;2.40;;;5.90;99.90;;;;;;5072578;28;20040;-70
2023/01/09 05:16:49;;;;;;;7.83;2.63;;;;;;;;;;5079085;28;20119;-71
2023/01/09 05:19:15;;;;;;;9.40;2.23;;;;;;;;;;5087747;28;20032;-71
2023/01/09 05:21:40;;;;;;;5.93;2.33;;;5.50;99.90;;;;;;5079202;28;20513;-71
2023/01/09 05:24:06;;;;;;;6.30;2.53;;;5.60;99.90;;;;;;5077882;28;20024;-71
2023/01/09 05:26:32;;;;;;;11.40;2.33;;;5.80;99.90;;;;;;5073706;28;20017;-70
2023/01/09 05:28:57;;;;;;;5.13;1.50;;;5.50;99.90;;;;;;5080056;28;20469;-70
2023/01/09 05:31:25;;;;;;;8.93;2.20;;;5.40;99.90;;;;;;5083561;28;20079;-70
2023/01/09 05:33:51;;;;;;;5.23;1.80;;;;;;;;;;5080271;28;20035;-70
2023/01/09 05:36:17;;;;;;;5.73;2.03;;;;;;;;;;5076394;28;20098;-71
2023/01/09 05:38:43;;;;;;;5.50;1.70;;;5.60;99.90;;;;;;5102463;28;20059;-69
2023/01/09 05:41:09;;;;;;;7.80;1.73;;;5.60;99.90;;;;;;5094785;28;20460;-70
2023/01/09 05:43:35;;;;;;;6.33;1.40;;;;;;;;;;5081505;28;20047;-70
2023/01/09 05:46:00;;;;;;;6.90;1.83;;;5.60;99.90;;;;;;5089131;28;20066;-70
2023/01/09 05:48:26;;;;;;;3.73;1.30;;;;;;;;;;5095679;28;20020;-70
2023/01/09 05:50:52;;;;;;;4.07;1.23;;;5.60;99.90;;;;;;5092642;28;20035;-70
2023/01/09 05:53:18;;;;;;;7.03;2.10;;;;;;;;;;5101652;28;20485;-70
2023/01/09 05:55:43;;;;;;;7.03;1.60;;;5.50;99.90;;;;;;5093591;28;20036;-70
2023/01/09 05:58:09;;;;;;;3.70;1.43;;;;;;;;;;5092807;28;20051;-70
2023/01/09 06:00:35;;;;;;;6.57;1.30;;;5.50;99.90;;;;;;5079300;28;20417;-70
2023/01/09 06:03:00;;;;;;;6.73;1.80;;;5.50;99.90;;;;;;5078421;28;20028;-70
2023/01/09 06:05:26;;;;;;;7.70;1.47;;;5.90;99.90;;;;;;5081517;28;20024;-69
2023/01/09 06:07:52;;;;;;;4.73;1.70;;;5.60;99.90;;;;;;5086730;28;20040;-70
2023/01/09 06:10:18;;;;;;;3.20;1.47;;;;;;;;;;5074621;28;20032;-70
2023/01/09 06:12:48;;;;;;;5.87;1.83;;;5.40;99.90;;;;;;5073182;28;20028;-70
2023/01/09 06:15:16;;;;;;;7.13;2.00;;;6.00;99.90;;;;;;5071194;28;20066;-70
2023/01/09 06:17:42;;;;;;;6.70;1.53;;;5.80;99.90;;;;;;5073944;28;20033;-69
2023/01/09 06:20:09;;;;;;;5.93;1.33;;;6.00;99.90;;;;;;5090253;28;20511;-69
2023/01/09 06:22:34;;;;;;;4.63;1.53;;;6.10;99.90;;;;;;5079410;28;20105;-70
2023/01/09 06:25:00;;;;;;;7.33;1.53;;;6.10;99.90;;;;;;5070411;28;20032;-70
2023/01/09 06:27:26;;;;;;;7.03;1.37;;;;;;;;;;5085833;28;20580;-69
2023/01/09 06:29:51;;;;;;;9.87;2.07;;;6.20;99.90;;;;;;5080817;28;20489;-70
2023/01/09 06:32:17;;;;;;;8.17;1.60;;;6.20;99.90;;;;;;5075696;28;20052;-69
2023/01/09 06:34:42;;;;;;;2.87;1.27;;;6.80;99.90;;;;;;5090405;28;20107;-69
2023/01/09 06:37:08;;;;;;;8.67;2.57;;;6.50;99.90;;;;;;5070782;28;20048;-69
2023/01/09 06:39:34;;;;;;;5.10;1.90;;;6.30;99.90;;;;;;5070152;28;20016;-69
2023/01/09 06:41:59;;;;;;;5.97;1.40;;;6.50;99.90;;;;;;5082244;28;20051;-69
2023/01/09 06:44:25;;;;;;;6.50;1.33;;;;;;;;;;5081141;28;20032;-69
2023/01/09 06:46:51;;;;;;;11.20;2.20;;;6.50;99.90;;;;;;5086307;28;20106;-69
2023/01/09 06:49:22;;;;;;;11.80;1.60;;;6.60;99.90;;;;;;5089869;28;20028;-69
2023/01/09 06:51:48;;;;;;;10.23;1.53;;;6.60;99.90;;;;;;5083726;28;20028;-69
2023/01/09 06:54:14;;;;;;;7.27;1.50;;;6.50;99.90;;;;;;5090157;28;20693;-69
2023/01/09 06:56:40;;;;;;;6.87;1.50;;;;;;;;;;5083608;28;20054;-70
2023/01/09 06:59:08;;;;;;;5.93;1.57;;;6.50;99.90;;;;;;5088209;28;20035;-69
2023/01/09 07:01:34;;;;;;;10.10;1.40;;;;;;;;;;5087406;28;20105;-70
2023/01/09 07:03:59;;;;;;;4.27;1.00;;;6.60;99.90;;;;;;5090380;28;20029;-70
2023/01/09 07:06:25;;;;;;;6.40;1.40;;;6.60;99.90;;;;;;5087753;28;20044;-68
2023/01/09 07:08:51;;;;;;;9.63;1.10;;;;;;;;;;5075089;28;20016;-67
2023/01/09 07:11:16;;;;;;;7.20;1.20;;;7.20;99.90;;;;;;5072382;28;20032;-68
2023/01/09 07:13:42;;;;;;;9.43;1.47;;;6.80;99.90;;;;;;5068904;28;20032;-68
2023/01/09 07:16:08;;;;;;;8.07;1.63;;;6.80;99.90;;;;;;5084958;28;20032;-68
2023/01/09 07:18:34;;;;;;;7.13;1.43;;;6.80;99.90;;;;;;5086729;28;20024;-68
2023/01/09 07:20:59;;;;;;;11.37;1.80;;;6.80;99.90;;;;;;5078081;28;20107;-68
2023/01/09 07:23:25;;;;;;;7.30;1.90;;;;;;;;;;5079939;28;20500;-68
2023/01/09 07:25:51;;;;;;;7.97;1.40;;;7.20;99.90;;;;;;5084297;28;20021;-68
2023/01/09 07:28:17;;;;;;;3.63;1.10;;;6.80;99.90;;;;;;5085546;28;20027;-68
2023/01/09 07:30:43;;;;;;;7.63;1.60;;;;;;;;;;5074688;28;20028;-69
2023/01/09 07:33:08;;;;;;;5.60;1.50;;;6.60;99.90;;;;;;5078271;28;20020;-67
2023/01/09 07:35:34;;;;;;;9.00;1.97;;;;;;;;;;5074465;28;20414;-68
2023/01/09 07:38:00;;;;;;;8.73;1.50;;;;;;;;;;5076796;28;20089;-68
2023/01/09 07:40:26;;;;;;;8.70;1.40;;;6.80;99.90;;;;;;5076077;28;20036;-68
2023/01/09 07:42:52;;;;;;;9.60;1.60;;;6.80;99.90;;;;;;5086278;28;20076;-68
2023/01/09 07:45:18;;;;;;;8.83;1.70;;;;;;;;;;5079031;28;20078;-68
2023/01/09 07:47:44;;;;;;;5.00;2.03;;;6.80;99.90;;;;;;5074194;28;20028;-68
2023/01/09 07:50:10;;;;;;;9.10;1.80;;;;;;;;;;5076219;28;20025;-68
2023/01/09 07:52:36;;;;;;;5.93;2.43;;;;;;;;;;5078396;28;20028;-68
2023/01/09 07:55:02;;;;;;;8.17;1.40;;;6.90;99.90;;;;;;5082787;28;20419;-68
2023/01/09 07:57:29;;;;;;;6.63;1.87;;;6.80;99.90;;;;;;5077387;28;20029;-68
2023/01/09 07:59:55;;;;;;;8.13;2.23;;;6.90;99.90;;;;;;5077919;28;20040;-68
2023/01/09 08:02:21;;;;;;;12.73;1.90;;;;;;;;;;5082107;28;20040;-67
2023/01/09 08:04:47;;;;;;;8.53;2.40;;;;;;;;;;5083603;28;20068;-67
2023/01/09 08:07:13;;;;;;;7.60;1.90;;;6.90;99.90;;;;;;5084850;28;20388;-66
2023/01/09 08:09:38;;;;;;;8.40;1.80;;;;;;;;;;5079785;28;20036;-67
2023/01/09 08:12:05;;;;;;;7.73;2.20;;;;;;;;;;5082778;28;20024;-67
2023/01/09 08:14:30;;;;;;;5.20;2.37;;;6.90;99.90;;;;;;5077519;28;20031;-67
2023/01/09 08:16:56;;;;;;;11.50;2.90;;;;;;;;;;5082163;28;20020;-67
2023/01/09 08:19:22;;;;;;;4.80;2.23;;;6.80;99.90;;;;;;5088098;28;20027;-67
2023/01/09 08:21:48;;;;;;;8.27;2.90;;;6.60;99.90;;;;;;5090140;28;20035;-68
2023/01/09 08:24:14;;;;;;;6.93;3.37;;;6.90;99.90;;;;;;5083565;28;20024;-68
2023/01/09 08:26:40;;;;;;;7.27;3.10;;;;;;;;;;5089352;28;20020;-68
2023/01/09 08:29:05;;;;;;;9.83;4.07;;;6.70;99.90;;;;;;5075792;28;20025;-67
2023/01/09 08:31:31;;;;;;;8.57;2.97;;;;;;;;;;5086494;28;20027;-68
2023/01/09 08:33:57;;;;;;;8.50;3.27;;;6.60;99.90;;;;;;5084710;28;20586;-68
2023/01/09 08:36:23;;;;;;;9.27;4.03;;;;;;;;;;5077034;28;20036;-68
2023/01/09 08:38:48;;;;;;;6.70;2.83;;;6.70;99.90;;;;;;5093859;28;20028;-68
2023/01/09 08:47:07;;;;;;;7.03;3.30;;;;;;;;;;5058592;28;20035;-68
2023/01/09 08:49:34;;;;;;;11.03;3.70;;;6.90;99.90;;;;;;5056582;28;20028;-70
2023/01/09 08:52:00;;;;;;;5.70;3.37;;;;;;;;;;5062889;28;20060;-68
2023/01/09 08:54:26;;;;;;;9.77;3.93;;;;;;;;;;5063211;28;20024;-68
2023/01/09 08:56:52;;;;;;;11.47;3.70;;;;;;;;;;5060755;28;20089;-68
2023/01/09 08:59:18;;;;;;;8.83;3.80;;;;;;;;;;5066641;28;20444;-68
2023/01/09 09:01:43;;;;;;;6.20;3.67;;;6.80;99.90;;;;;;5069608;28;20055;-68
2023/01/09 09:04:09;;;;;;;8.90;4.43;;;;;;;;;;5068362;28;20139;-68
2023/01/09 09:06:35;;;;;;;14.20;3.50;;;7.10;99.90;;;;;;5069071;28;20130;-68
2023/01/09 09:09:02;;;;;;;4.90;3.60;;;;;;;;;;5066830;28;20529;-68
2023/01/09 09:11:29;;;;;;;10.57;4.07;;;7.00;99.90;;;;;;5068822;28;20041;-68
2023/01/09 09:13:55;;;;;;;4.97;3.50;;;6.90;99.90;;;;;;5069355;28;20032;-68
2023/01/09 09:16:21;;;;;;;7.90;3.70;;;;;;;;;;5049171;28;20567;-68
2023/01/09 09:18:47;;;;;;;7.33;3.83;;;;;;;;;;5078672;28;20039;-68
2023/01/09 09:21:12;;;;;;;6.80;3.63;;;7.00;99.90;;;;;;5086808;28;20071;-68
2023/01/09 09:23:38;;;;;;;9.60;4.93;;;7.10;99.90;;;;;;5092024;28;20631;-68
2023/01/09 09:26:04;;;;;;;7.73;3.87;;;;;;;;;;5080347;28;20020;-68
2023/01/09 09:28:30;;;;;;;11.80;5.47;;;7.30;99.90;;;;;;5085614;28;20035;-68
2023/01/09 09:30:56;;;;;;;11.67;4.70;;;;;;;;;;5089472;28;20028;-68
2023/01/09 09:33:22;;;;;;;5.30;4.00;;;;;;;;;;5084253;28;20477;-68
2023/01/09 09:35:47;;;;;;;6.77;4.43;;;;;;;;;;5083770;28;20381;-68
2023/01/09 09:38:13;;;;;;;9.47;3.23;;;7.30;99.90;;;;;;5074549;28;20021;-68
2023/01/09 09:41:01;;;;;;;6.37;3.77;;;7.10;99.90;;;;;;5081883;28;20473;-69
2023/01/09 09:47:10;;;;;;;6.50;2.60;;;7.30;99.90;;;;;;5019117;28;20477;-69
2023/01/09 09:49:54;;;;;;;8.10;3.10;;;7.40;99.90;;;;;;5021732;28;20719;-68
2023/01/09 09:52:44;;;;;;;5.07;2.57;;;7.40;99.90;;;;;;5017312;28;20465;-68
2023/01/09 09:55:26;;;;;;;6.30;2.43;;;7.30;99.90;;;;;;5023357;28;20038;-68
2023/01/09 09:57:52;;;;;;;5.73;3.50;;;;;;;;;;5014058;28;20037;-69
2023/01/09 10:00:20;;;;;;;6.83;3.13;;;7.40;99.90;;;;;;5021578;28;20033;-68
2023/01/09 10:02:52;;;;;;;9.03;3.57;;;7.50;99.90;;;;;;5020117;28;20048;-68
2023/01/09 10:05:29;;;;;;;7.47;3.20;;;7.50;99.90;;;;;;5010392;28;20026;-68
2023/01/09 10:07:56;;;;;;;10.00;3.80;;;7.40;99.90;;;;;;5009477;28;20041;-68
2023/01/09 10:10:51;;;;;;;5.47;3.43;;;7.30;99.90;;;;;;5028417;28;20111;-68
2023/01/09 10:16:19;;;;;;;6.97;4.43;;;7.70;99.90;;;;;;5016846;28;20096;-68
2023/01/09 10:19:30;;;;;;;8.20;4.90;;;7.80;99.90;;;;;;5012705;28;20036;-69
2023/01/09 10:22:13;;;;;;;10.37;5.43;;;7.80;99.90;;;;;;5033152;28;20489;-69
2023/01/09 10:24:43;;;;;;;11.77;5.57;;;7.90;99.90;;;;;;5028627;28;20034;-68
2023/01/09 10:27:40;;;;;;;7.63;4.93;;;7.80;99.90;;;;;;5032415;28;20080;-68
2023/01/09 10:30:06;;;;;;;9.23;5.33;;;;;;;;;;4986804;28;20038;-68
2023/01/09 10:32:52;;;;;;;8.73;4.70;;;8.00;99.90;;;;;;4989354;28;20110;-68
2023/01/09 10:35:39;;;;;;;8.73;4.73;;;7.90;99.90;;;;;;4987344;28;20542;-69
2023/01/09 10:38:08;;;;;;;8.40;3.93;;;7.90;99.90;;;;;;4987958;28;20049;-68
2023/01/09 10:40:45;;;;;;;6.13;3.53;;;7.80;99.90;;;;;;4987787;28;20046;-68
2023/01/09 10:43:33;;;;;;;9.57;3.73;;;8.00;99.90;;;;;;5006513;28;20104;-69
2023/01/09 10:46:06;;;;;;;9.00;4.20;;;7.70;99.90;;;;;;4995658;28;20407;-68
2023/01/09 10:48:36;;;;;;;6.60;2.80;;;7.70;99.90;;;;;;4988452;28;20046;-68
2023/01/09 10:51:14;;;;;;;4.57;3.67;;;7.60;99.90;;;;;;4984026;28;20113;-68
2023/01/09 10:53:44;;;;;;;4.47;3.20;;;7.70;99.90;;;;;;4985825;28;20073;-68
2023/01/09 10:56:32;;;;;;;8.40;3.47;;;7.70;99.90;;;;;;4988039;28;20502;-69
2023/01/09 10:58:58;;;;;;;5.30;4.10;;;;;;;;;;5012996;28;20041;-68
2023/01/09 11:01:27;;;;;;;10.33;4.33;;;7.40;99.90;;;;;;5031744;28;20044;-68
2023/01/09 11:03:53;;;;;;;11.50;5.07;;;7.70;99.90;;;;;;5031042;28;20046;-68
2023/01/09 11:06:28;;;;;;;5.57;3.80;;;7.70;99.90;;;;;;5049190;28;20035;-68
2023/01/09 11:08:57;;;;;;;5.67;3.60;;;7.80;99.90;;;;;;5078453;28;20031;-68
2023/01/09 11:11:35;;;;;;;5.03;3.23;;;7.90;99.90;;;;;;5072384;28;20150;-68
2023/01/09 11:14:16;;;;;;;4.30;2.90;;;7.60;99.90;;;;;;5076641;28;20519;-68
2023/01/09 11:16:56;;;;;;;8.77;3.63;;;7.60;99.90;;;;;;5082015;28;20110;-68
2023/01/09 11:19:23;;;;;;;5.03;2.60;;;7.60;99.90;;;;;;5067401;28;20036;-68
2023/01/09 11:21:49;;;;;;;7.70;3.40;;;7.80;99.90;;;;;;5073479;28;20033;-68
2023/01/09 11:24:20;;;;;;;5.33;3.03;;;7.80;99.90;;;;;;5098822;28;20065;-68
2023/01/09 11:26:47;;;;;;;4.23;3.50;;;7.50;99.90;;;;;;5081990;28;20027;-69
2023/01/09 11:29:15;;;;;;;5.83;3.67;;;8.10;99.90;;;;;;5076888;28;20048;-68
2023/01/09 11:31:50;;;;;;;9.43;4.50;;;8.10;99.90;;;;;;5080251;28;20027;-68
2023/01/09 11:34:24;;;;;;;7.43;3.43;;;8.10;99.90;;;;;;5097743;28;20028;-68
2023/01/09 11:36:51;;;;;;;;;;;8.10;99.90;;;;;;5082130;28;20084;-70
2023/01/09 11:39:32;;;;;;;4.00;2.73;;;8.20;99.90;;;;;;5074269;28;20265;-68
2023/01/09 11:42:04;;;;;;;5.83;2.80;;;8.30;99.90;;;;;;5070641;28;20048;-68
2023/01/09 11:44:31;;;;;;;6.00;3.40;;;8.20;99.90;;;;;;5070534;28;20055;-68
2023/01/09 11:46:57;;;;;;;7.47;2.90;;;8.30;99.90;;;;;;5072538;28;20107;-68
2023/01/09 11:49:25;;;;;;;5.90;3.03;;;8.00;99.90;;;;;;5069956;28;20116;-68
2023/01/09 11:52:14;;;;;;;6.33;2.93;;;8.10;99.90;;;;;;5071499;28;20028;-68
2023/01/09 11:55:12;;;;;;;5.67;3.20;;;8.30;99.90;;;;;;5072169;28;20028;-68
2023/01/09 11:57:37;;;;;;;6.23;2.40;;;;;;;;;;5054195;28;20029;-68
2023/01/09 12:00:33;;;;;;;10.30;3.27;;;8.20;99.90;;;;;;5072174;28;20020;-68
2023/01/09 12:03:01;;;;;;;6.90;2.70;;;8.20;99.90;;;;;;5070426;28;20048;-69
2023/01/09 12:05:58;;;;;;;6.50;2.27;;;8.30;99.90;;;;;;5070798;28;20488;-68
2023/01/09 12:08:29;;;;;;;7.40;2.83;;;8.50;99.90;;;;;;5070028;28;20029;-68
2023/01/09 12:11:26;;;;;;;4.43;2.43;;;8.60;99.90;;;;;;5070899;28;20024;-68
2023/01/09 12:14:05;;;;;;;5.20;1.57;;;8.70;99.90;;;;;;5076709;28;20081;-68
2023/01/09 12:16:40;;;;;;;7.57;2.50;;;8.60;99.90;;;;;;5082683;28;20077;-68
2023/01/09 12:19:36;;;;;;;8.07;2.30;;;8.50;99.90;;;;;;5083933;28;20035;-68
2023/01/09 12:22:27;;;;;;;10.90;2.53;;;9.20;99.90;;;;;;5076541;28;20020;-67
2023/01/09 12:25:05;;;;;;;6.63;3.30;;;9.00;99.90;;;;;;5082613;28;20024;-68
2023/01/09 12:27:43;;;;;;;8.17;2.07;;;9.00;99.90;;;;;;5080845;28;20027;-68
2023/01/09 12:30:27;;;;;;;9.33;3.50;;;8.90;99.90;;;;;;5078777;28;20028;-67
2023/01/09 12:33:08;;;;;;;13.18;2.97;;;8.80;99.90;;;;;;5080684;28;20036;-68
2023/01/09 12:35:37;;;;;;;8.87;3.53;;;8.80;99.90;;;;;;5086801;28;20498;-68
2023/01/09 12:38:43;;;;;;;7.23;3.23;;;9.00;99.90;;;;;;5078549;28;20032;-68
2023/01/09 12:41:21;;;;;;;12.83;3.10;;;8.90;99.90;;;;;;5069270;27;20035;-68
2023/01/09 12:44:19;;;;;;;15.30;4.20;;;9.00;99.90;;;;;;5084243;28;20420;-68
2023/01/09 12:46:45;;;;;;;12.97;2.80;;;;;;;;;;5085996;28;20024;-67
2023/01/09 12:49:18;;;;;;;10.50;3.03;;;9.20;99.90;;;;;;5085782;28;20020;-68
2023/01/09 12:52:02;;;;;;;10.90;3.50;;;9.20;99.90;;;;;;5076770;28;20027;-68
2023/01/09 12:54:44;;;;;;;12.15;3.17;;;9.10;99.90;;;;;;5073854;28;20036;-68
2023/01/09 12:57:25;;;;;;;11.33;3.93;;;9.00;99.90;;;;;;5071851;28;20039;-68
2023/01/09 13:00:20;;;;;;;10.27;2.77;;;9.00;99.90;;;;;;5073976;28;20018;-68
2023/01/09 13:03:16;;;;;;;7.78;2.40;;;9.00;99.90;;;;;;5067214;28;20044;-67
2023/01/09 13:05:42;;;;;;;11.23;2.40;;;;;;;;;;5073001;28;20033;-68
2023/01/09 13:08:15;;;;;;;9.70;3.17;;;9.00;99.90;;;;;;5083960;28;20039;-67
2023/01/09 13:10:46;;;;;;;10.43;2.30;;;9.00;99.90;;;;;;5110101;28;20015;-68
2023/01/09 13:13:18;;;;;;;15.43;2.67;;;9.10;99.90;;;;;;5086695;28;20017;-68
2023/01/09 13:15:48;;;;;;;8.40;2.30;;;9.00;99.90;;;;;;5079322;28;20028;-67
2023/01/09 13:18:39;;;;;;;9.73;2.70;;;9.20;99.90;;;;;;5084452;28;20013;-67
2023/01/09 13:21:05;;;;;;;6.90;2.43;;;;;;;;;;5082027;28;20017;-67
2023/01/09 13:23:54;;;;;;;13.70;3.20;;;9.10;99.90;;;;;;5084962;28;20020;-67
2023/01/09 13:26:42;;;;;;;7.17;2.40;;;9.00;99.90;;;;;;5086433;28;20755;-67
2023/01/09 13:29:27;;;;;;;6.00;2.00;;;9.00;99.90;;;;;;5081074;28;20103;-67
2023/01/09 13:32:19;;;;;;;8.77;3.40;;;8.80;99.90;;;;;;5081625;28;20032;-67
2023/01/09 13:34:49;;;;;;;15.40;3.40;;;8.90;99.90;;;;;;5084637;28;20117;-68
2023/01/09 13:37:22;;;;;;;4.80;2.40;;;8.80;99.90;;;;;;5083041;28;20035;-68
2023/01/09 13:40:03;;;;;;;7.50;2.47;;;8.80;99.90;;;;;;5083043;28;20422;-68
2023/01/09 13:42:35;;;;;;;11.83;2.90;;;8.80;99.90;;;;;;5083546;28;20055;-68
2023/01/09 13:45:11;;;;;;;8.90;2.67;;;8.70;99.90;;;;;;5085417;28;20052;-68
2023/01/09 13:47:37;;;;;;;10.53;2.67;;;;;;;;;;5108994;28;20028;-70
2023/01/09 13:50:08;;;;;;;8.93;3.13;;;8.50;99.90;;;;;;5107149;28;20023;-68
2023/01/09 13:52:41;;;;;;;15.03;4.10;;;8.50;99.90;;;;;;5100555;28;20024;-67